Search for airport 
image banner adimage banner ad
image banner ad

SEJS - Joya De Los Sachas

Located in , Ecuador

ICAO - , IATA -

Data provided by Airmate  

General information

Coordinates: S0°19'42" W76°52'45"
Elevation is feet MSL.
 
View others Airports in Orellana

Operational data

Open for public use
Current time UTC:
Current local time:
METAR: SECO 262100Z 08007KT 9999 FEW020 34/23 Q1005 RMK A2970
View NOTAMs / SUP AIP / TFR affecting this airport [VIEW]
Communications frequencies: [VIEW]

Runways:

RWY identifierQFULength (ft)Width (ft)SurfaceLDA (ft)
0400
2200

Airport contact information

Address: Ecuador

Satellite view of SEJS